Air Navigation Services of Czech Republic
Airport: LKPR Updated:  25.03.2017 07:38:05  UTC
 METAR LKPR 25.03. 07:30 ...
METAR LKPR 250730Z 34004KT 300V020 CAVOK 05/01 Q1029 NOSIG RMK REG QNH 1025=
 TAF LKPR 25.03. 05:00 ...
TAF LKPR 250500Z 2506/2612 VRB02KT CAVOK      BECMG 2518/2521 35005KT      BECMG 2604/2607 08007KT=